Etusivu
METAR-TAF:

METAR-TAF

Lentoasemat :

Hasvik, Norja

Leveyspiiri: 70-29N, Pituuspiiri: 022-09E, korkeus merenpinnasta: 10 m

Tämänhetkinen sää

Tämä raportti tehtiin 47 minuuttia sitten, kello 11.50 UTC
Tuuli 2 kn eri suunnista
Lämpötila 5°C
Kosteus 65%
Ilmanpaine 1017 hPa
Näkyvyys 10 km tai enemmän
Muutamia pilviä 2000 ft:n korkeudessa

METAR: ENHK 191150Z VRB02KT 9999 FEW020 05/M01 Q1017

Aika: 14:37 (12:37 UTC)


TAF: puuttuu

Säähavainnot ja -ennusteet yli 4000 lentoasemalta (METAR- ja TAF-raportit).

Käytössä olevat sääasemat on merkitty karttaan keltaisilla ja punaisilla pisteillä.

Aseta hiiri pisteen päälle nähdäksesi sääaseman nimen.

Klikkaa sitten nähdäksesi säähavainnot ja -ennusteet.

Kartan vaihtaminen: klikkaa mustalla rastilla varustettuja vihreitä pisteitä, niin voit zoomata sisään; viivalla varustettua vihreää pistettä, niin voit zoomata ulos tai vihreitä nuolia, niin pääset viereisille kartoille.


METAR-TAF: